WetterOnline ( http://www.wetteronline.de )

Wetter aktuell Taunus (in 800m)

Aktuelles Wetter: Kleiner Feldberg (802m)

6-stündlich | Neueste Meldungen
Ortszeit Temperatur Wetter
Mo, 28.05. 8:00 19.5° C wolkig
Mo, 28.05. 2:00 17.0° C wolkig
So, 27.05. 20:00 19.1° C bedeckt
So, 27.05. 14:00 22.4° C leicht bewölkt
So, 27.05. 8:00 18.6° C bedeckt
So, 27.05. 2:00 16.1° C wolkig
Sa, 26.05. 20:00 19.6° C leicht bewölkt
Sa, 26.05. 14:00 20.3° C fast wolkenlos
Ortszeit Temperatur Wetter
Mo, 28.05. 11:00 21.8° C fast wolkenlos
Mo, 28.05. 10:50 21.8° C fast wolkenlos
Mo, 28.05. 10:40 22.4° C wolkenlos
Mo, 28.05. 10:30 21.8° C wolkenlos
Mo, 28.05. 10:20 21.8° C wolkenlos
Mo, 28.05. 10:10 21.6° C fast wolkenlos
Mo, 28.05. 10:00 21.7° C leicht bewölkt
Mo, 28.05. 9:30 20.9° C wolkig
Mo, 28.05. 9:00 20.6° C leicht bewölkt
Mo, 28.05. 8:30 20.1° C bewölkt
Mo, 28.05. 8:00 19.5° C wolkig
Ortszeit Relative Feuchte Sichtweite
Mo, 28.05. 8:00 61% 35 km
Mo, 28.05. 2:00 75% 35 km
So, 27.05. 20:00 65% 40 km
So, 27.05. 14:00 53% 28 km
So, 27.05. 8:00 67% 35 km
So, 27.05. 2:00 75% 30 km
Sa, 26.05. 20:00 60% 45 km
Sa, 26.05. 14:00 60% 24 km
Ortszeit Relative Feuchte Sichtweite
Mo, 28.05. 11:00 53% 35 km
Mo, 28.05. 10:50 53% -
Mo, 28.05. 10:40 56% -
Mo, 28.05. 10:30 54% 30 km
Mo, 28.05. 10:20 54% -
Mo, 28.05. 10:10 53% -
Mo, 28.05. 10:00 55% 30 km
Mo, 28.05. 9:30 59% 29 km
Mo, 28.05. 9:00 56% 35 km
Mo, 28.05. 8:30 58% 35 km
Mo, 28.05. 8:00 61% 35 km
Ortszeit Niederschlagsmenge Niederschlagsart
Mo, 28.05. 8:00 0.1 l/m2 in 12 Std. -
Mo, 28.05. 2:00 0.1 l/m2 in 6 Std. Regen
So, 27.05. 20:00 0.1 l/m2 in 12 Std. Regen
So, 27.05. 14:00 0.1 l/m2 in 6 Std. Regen
So, 27.05. 8:00 0.0 l/m2 in 12 Std. -
So, 27.05. 2:00 0.0 l/m2 in 6 Std. -
Sa, 26.05. 20:00 0.0 l/m2 in 12 Std. -
Sa, 26.05. 14:00 0.0 l/m2 in 6 Std. -
Ortszeit Niederschlagsmenge Niederschlagsart
Mo, 28.05. 11:00 0.0 l/m2 in 1 Std. -
Mo, 28.05. 10:50 keine Meldung -
Mo, 28.05. 10:40 keine Meldung -
Mo, 28.05. 10:30 0.0 l/m2 in 1 Std. -
Mo, 28.05. 10:20 keine Meldung -
Mo, 28.05. 10:10 keine Meldung -
Mo, 28.05. 10:00 0.0 l/m2 in 1 Std. -
Mo, 28.05. 9:30 0.0 l/m2 in 1 Std. -
Mo, 28.05. 9:00 0.0 l/m2 in 1 Std. -
Mo, 28.05. 8:30 0.0 l/m2 in 1 Std. -
Mo, 28.05. 8:00 0.0 l/m2 in 1 Std. -
Ortszeit Stärke Spitze Richtung
km/h Bft. km/h Grad Sektor
Mo, 28.05. 8:00 11 2 22 80° O
Mo, 28.05. 2:00 13 3 37 70° O
So, 27.05. 20:00 7 2 18 330° NW
So, 27.05. 14:00 7 2 25 130° SO
So, 27.05. 8:00 11 2 32 90° O
So, 27.05. 2:00 18 3 29 80° O
Sa, 26.05. 20:00 7 2 25 70° O
Sa, 26.05. 14:00 14 3 29 90° O
Ortszeit Stärke Spitze Richtung
km/h Bft. km/h Grad Sektor
Mo, 28.05. 11:00 7 2 14 90° O
Mo, 28.05. 10:50 7 2 - 90° O
Mo, 28.05. 10:40 7 2 - 70° O
Mo, 28.05. 10:30 9 2 15 90° O
Mo, 28.05. 10:20 9 2 - 90° O
Mo, 28.05. 10:10 11 2 - 90° O
Mo, 28.05. 10:00 9 2 17 90° O
Mo, 28.05. 9:30 11 2 18 70° O
Mo, 28.05. 9:00 11 2 18 90° O
Mo, 28.05. 8:30 11 2 17 80° O
Mo, 28.05. 8:00 11 2 18 80° O
Ortszeit Untergrenze Bedeckung Gattung
total tief tief mittel hoch
Mo, 28.05. 8:00 1470 m 8/8 2/8 - - -
Mo, 28.05. 2:00 3000 m 7/8 4/8 - - -
So, 27.05. 20:00 2700 m 8/8 8/8 - - -
So, 27.05. 14:00 1140 m 5/8 1/8 - - -
So, 27.05. 8:00 3000 m 8/8 8/8 - - -
So, 27.05. 2:00 9000 m 7/8 0/8 - - -
Sa, 26.05. 20:00 3300 m 2/8 - - - -
Sa, 26.05. 14:00 9000 m 1/8 0/8 - - -
Ortszeit Bedeckungsgrad in Achtel und Wolkenuntergrenze
Mo, 28.05. 11:00 1(10500m)
Mo, 28.05. 10:50 1(10500m)
Mo, 28.05. 10:40 keine Wolken
Mo, 28.05. 10:30 keine Wolken
Mo, 28.05. 10:20 keine Wolken
Mo, 28.05. 10:10 1(10500m)
Mo, 28.05. 10:00 4(10500m)
Mo, 28.05. 9:30 7(10500m)
Mo, 28.05. 9:00 1(1380m) 3(10500m)
Mo, 28.05. 8:30 3(1350m) 7(1500m) 7(2100m)
Mo, 28.05. 8:00 2(1470m) 8(10500m)
Ortszeit Stationsdruck (hPa) Tendenz (hPa in 3 Std.)
Mo, 28.05. 8:00 924 + 0,7
Mo, 28.05. 2:00 924 - 0,2
So, 27.05. 20:00 924 - 0,7
So, 27.05. 14:00 925 - 0,4
So, 27.05. 8:00 925 + 0,4
So, 27.05. 2:00 926 - 0,9
Sa, 26.05. 20:00 927 - 0,3
Sa, 26.05. 14:00 927 + 0,3
Ortszeit Stationsdruck (hPa) Tendenz (hPa in 3 Std.)
Mo, 28.05. 11:00 925 + 0,5
Mo, 28.05. 10:50 925 keine Meldung
Mo, 28.05. 10:40 925 keine Meldung
Mo, 28.05. 10:30 925 + 0,5
Mo, 28.05. 10:20 925 keine Meldung
Mo, 28.05. 10:10 925 keine Meldung
Mo, 28.05. 10:00 925 + 0,6
Mo, 28.05. 9:30 925 + 0,7
Mo, 28.05. 9:00 925 + 0,8
Mo, 28.05. 8:30 925 + 0,9
Mo, 28.05. 8:00 924 + 0,7
Ortszeit Schneehöhe (cm)
Mo, 28.05. 8:00 -
Mo, 28.05. 2:00 -
So, 27.05. 20:00 -
So, 27.05. 14:00 -
So, 27.05. 8:00 -
So, 27.05. 2:00 -
Sa, 26.05. 20:00 -
Sa, 26.05. 14:00 -
Ortszeit Schneehöhe (cm)
Mo, 28.05. 11:00 -
Mo, 28.05. 10:50 -
Mo, 28.05. 10:40 -
Mo, 28.05. 10:30 -
Mo, 28.05. 10:20 -
Mo, 28.05. 10:10 -
Mo, 28.05. 10:00 -
Mo, 28.05. 9:30 -
Mo, 28.05. 9:00 -
Mo, 28.05. 8:30 -
Mo, 28.05. 8:00 -
Link zu dieser Seite / Seite empfehlen

Das Wetter in ...